sensor_id;sensor_type;location;lat;lon;timestamp;temperature;humidity
1165;DHT22;571;50.930;6.926;2023-04-23T02:47:06;12.90;99.90
1165;DHT22;571;50.930;6.926;2023-04-23T02:49:45;13.00;99.90
1165;DHT22;571;50.930;6.926;2023-04-23T02:52:39;12.90;99.90
1165;DHT22;571;50.930;6.926;2023-04-23T02:55:25;12.40;99.90
1165;DHT22;571;50.930;6.926;2023-04-23T02:58:13;12.10;99.90
1165;DHT22;571;50.930;6.926;2023-04-23T03:00:59;13.60;99.90
1165;DHT22;571;50.930;6.926;2023-04-23T03:03:55;13.40;99.90
1165;DHT22;571;50.930;6.926;2023-04-23T03:06:43;12.90;99.90
1165;DHT22;571;50.930;6.926;2023-04-23T03:09:32;12.40;99.90
1165;DHT22;571;50.930;6.926;2023-04-23T03:12:32;12.20;99.90
1165;DHT22;571;50.930;6.926;2023-04-23T03:15:30;12.80;99.90
1165;DHT22;571;50.930;6.926;2023-04-23T03:18:28;14.00;99.90
1165;DHT22;571;50.930;6.926;2023-04-23T03:21:14;13.30;99.90
1165;DHT22;571;50.930;6.926;2023-04-23T03:26:48;12.60;99.90
1165;DHT22;571;50.930;6.926;2023-04-23T03:29:38;12.80;99.90
1165;DHT22;571;50.930;6.926;2023-04-23T03:32:29;13.90;99.90
1165;DHT22;571;50.930;6.926;2023-04-23T03:35:23;12.90;99.90
1165;DHT22;571;50.930;6.926;2023-04-23T03:38:18;12.60;99.90
1165;DHT22;571;50.930;6.926;2023-04-23T03:41:56;13.50;99.90
1165;DHT22;571;50.930;6.926;2023-04-23T03:44:38;12.50;99.90
1165;DHT22;571;50.930;6.926;2023-04-23T03:47:30;12.80;99.90
1165;DHT22;571;50.930;6.926;2023-04-23T03:50:24;12.60;99.90
1165;DHT22;571;50.930;6.926;2023-04-23T03:53:35;12.60;99.90
1165;DHT22;571;50.930;6.926;2023-04-23T03:56:28;12.90;99.90
1165;DHT22;571;50.930;6.926;2023-04-23T03:59:36;12.90;99.90
1165;DHT22;571;50.930;6.926;2023-04-23T04:02:48;12.90;99.90
1165;DHT22;571;50.930;6.926;2023-04-23T04:05:41;11.70;99.90
1165;DHT22;571;50.930;6.926;2023-04-23T04:08:39;12.90;99.90
1165;DHT22;571;50.930;6.926;2023-04-23T04:11:22;13.40;99.90
1165;DHT22;571;50.930;6.926;2023-04-23T04:14:23;13.30;99.90
1165;DHT22;571;50.930;6.926;2023-04-23T04:17:07;13.40;99.90
1165;DHT22;571;50.930;6.926;2023-04-23T04:20:12;12.10;99.90
1165;DHT22;571;50.930;6.926;2023-04-23T04:22:58;12.60;99.90
1165;DHT22;571;50.930;6.926;2023-04-23T04:25:54;12.10;99.90
1165;DHT22;571;50.930;6.926;2023-04-23T04:28:53;13.50;99.90
1165;DHT22;571;50.930;6.926;2023-04-23T04:31:41;14.00;99.90
1165;DHT22;571;50.930;6.926;2023-04-23T04:34:51;13.60;99.90
1165;DHT22;571;50.930;6.926;2023-04-23T04:37:38;12.20;99.90
1165;DHT22;571;50.930;6.926;2023-04-23T04:40:44;12.20;99.90
1165;DHT22;571;50.930;6.926;2023-04-23T04:43:53;13.40;99.90
1165;DHT22;571;50.930;6.926;2023-04-23T04:53:06;13.20;99.90
1165;DHT22;571;50.930;6.926;2023-04-23T04:56:15;12.80;99.90
1165;DHT22;571;50.930;6.926;2023-04-23T04:59:10;11.70;99.90
1165;DHT22;571;50.930;6.926;2023-04-23T05:05:30;12.60;99.90
1165;DHT22;571;50.930;6.926;2023-04-23T05:08:44;13.20;99.90
1165;DHT22;571;50.930;6.926;2023-04-23T05:14:59;13.10;99.90
1165;DHT22;571;50.930;6.926;2023-04-23T05:21:14;13.30;99.90
1165;DHT22;571;50.930;6.926;2023-04-23T05:24:21;12.30;99.90
1165;DHT22;571;50.930;6.926;2023-04-23T05:27:17;13.70;99.90
1165;DHT22;571;50.930;6.926;2023-04-23T05:30:18;12.30;99.90
1165;DHT22;571;50.930;6.926;2023-04-23T05:33:09;13.30;99.90
1165;DHT22;571;50.930;6.926;2023-04-23T05:36:02;13.30;99.90
1165;DHT22;571;50.930;6.926;2023-04-23T05:38:47;13.40;99.90
1165;DHT22;571;50.930;6.926;2023-04-23T05:41:36;13.60;99.90
1165;DHT22;571;50.930;6.926;2023-04-23T05:44:41;13.30;99.90
1165;DHT22;571;50.930;6.926;2023-04-23T05:47:41;13.40;99.90
1165;DHT22;571;50.930;6.926;2023-04-23T05:50:39;13.50;99.90
1165;DHT22;571;50.930;6.926;2023-04-23T05:53:38;13.20;99.90
1165;DHT22;571;50.930;6.926;2023-04-23T05:59:00;13.60;99.90
1165;DHT22;571;50.930;6.926;2023-04-23T06:02:07;13.60;99.90
1165;DHT22;571;50.930;6.926;2023-04-23T06:05:25;13.20;99.90
1165;DHT22;571;50.930;6.926;2023-04-23T06:25:35;12.80;99.90
1165;DHT22;571;50.930;6.926;2023-04-23T06:28:54;15.10;99.90
1165;DHT22;571;50.930;6.926;2023-04-23T06:58:06;14.90;99.90
1165;DHT22;571;50.930;6.926;2023-04-23T07:01:25;16.10;99.90
1165;DHT22;571;50.930;6.926;2023-04-23T07:10:57;15.10;99.90
1165;DHT22;571;50.930;6.926;2023-04-23T07:20:46;15.50;99.90
1165;DHT22;571;50.930;6.926;2023-04-23T12:31:57;23.50;56.20
1165;DHT22;571;50.930;6.926;2023-04-23T12:35:28;24.90;54.70
1165;DHT22;571;50.930;6.926;2023-04-23T12:40:01;24.30;52.90
1165;DHT22;571;50.930;6.926;2023-04-23T12:42:10;25.70;52.50
1165;DHT22;571;50.930;6.926;2023-04-23T12:48:51;25.30;50.40
1165;DHT22;571;50.930;6.926;2023-04-23T12:51:51;23.90;50.50
1165;DHT22;571;50.930;6.926;2023-04-23T12:54:34;24.60;49.10
1165;DHT22;571;50.930;6.926;2023-04-23T12:57:41;24.20;49.00
1165;DHT22;571;50.930;6.926;2023-04-23T13:06:01;24.60;50.10
1165;DHT22;571;50.930;6.926;2023-04-23T13:09:40;23.80;48.90
1165;DHT22;571;50.930;6.926;2023-04-23T13:10:45;24.50;47.30
1165;DHT22;571;50.930;6.926;2023-04-23T13:13:38;23.90;47.20
1165;DHT22;571;50.930;6.926;2023-04-23T13:16:30;23.70;47.50
1165;DHT22;571;50.930;6.926;2023-04-23T13:19:42;23.30;47.70
1165;DHT22;571;50.930;6.926;2023-04-23T13:22:46;23.60;48.40
1165;DHT22;571;50.930;6.926;2023-04-23T13:26:03;23.90;49.10
1165;DHT22;571;50.930;6.926;2023-04-23T13:40:01;23.30;49.50
1165;DHT22;571;50.930;6.926;2023-04-23T14:07:49;21.20;56.00
1165;DHT22;571;50.930;6.926;2023-04-23T14:11:08;22.20;55.80
1165;DHT22;571;50.930;6.926;2023-04-23T14:42:16;20.80;58.10
1165;DHT22;571;50.930;6.926;2023-04-23T14:49:09;20.10;58.80
1165;DHT22;571;50.930;6.926;2023-04-23T17:07:07;15.20;99.90
1165;DHT22;571;50.930;6.926;2023-04-23T17:09:55;15.20;99.90
1165;DHT22;571;50.930;6.926;2023-04-23T17:19:27;15.40;99.90
1165;DHT22;571;50.930;6.926;2023-04-23T17:36:49;15.50;99.90
1165;DHT22;571;50.930;6.926;2023-04-23T17:48:12;15.50;99.90
1165;DHT22;571;50.930;6.926;2023-04-23T17:53:53;15.60;99.90
1165;DHT22;571;50.930;6.926;2023-04-23T18:03:55;15.50;99.90
1165;DHT22;571;50.930;6.926;2023-04-23T18:42:02;15.50;99.90
1165;DHT22;571;50.930;6.926;2023-04-23T18:45:51;15.40;99.90
1165;DHT22;571;50.930;6.926;2023-04-23T19:25:50;15.30;99.90
